Wheaton, Illinois
Current Conditions -  °F | °C
As of 10:52 PM on Friday 24 Oct 2014 (Local Time) from KDPA Reporting Station
Overcast Overcast  
Wind Chill: 59°   Ceiling: 3800
Heat Index: 59°   Visibility: 10mi
Dew Point: 49°   Wind: 9mph
Humidity: 69%   Direction: 210°SSW
Pressure: 29.93"   Gusts: NA
Location:  41.87°N, 88.11°W
Report Text: KDPA 250352Z 21008KT 10SM OVC038 15/09 A2993 RMK AO2 SLP136 T01500094
Loading
Personal Weather Stations






























Interactive Weather Map
Tropical Storm Tracking
New forecast layout! Learn more

10-Day Weather Forecast

Advertisements
Track Severe Weather on mobile